This is the latest recevied weather packets stored in our database for station/object N5WAY-13. If no packets are shown the sender has not sent any weather packets the latest 10 day(s).
| Time | Temp. | Humidity | Pressure | Rain* | Wind** | Luminosity | Snow |
|---|---|---|---|---|---|---|---|
| 1777623017 | 10° C | 80% | 1016 hPa | 2.29 mm | - | 0 W/m² | - |
| 1777618838 | 12.78° C | 57% | 1014.5 hPa | 0 mm | - | 0 W/m² | - |
| 1777614616 | 15° C | 46% | 1013.8 hPa | 0 mm | - | 0 W/m² | - |
| 1777614016 | 15° C | 45% | 1013.5 hPa | 0 mm | - | 0 W/m² | - |
| 1777612816 | 15° C | 44% | 1013.6 hPa | 0 mm | - | 0 W/m² | - |
| 1777611016 | 15° C | 46% | 1013.4 hPa | 0 mm | - | 0 W/m² | - |
| 1777610417 | 15.56° C | 43% | 1013.5 hPa | 0 mm | - | 0 W/m² | - |
| 1777605638 | 18.33° C | 29% | 1012.2 hPa | 0 mm | - | 0 W/m² | - |
| 1777604438 | 18.33° C | 29% | 1011.9 hPa | 0 mm | - | 0 W/m² | - |
| 1777601415 | 19.44° C | 22% | 1010.9 hPa | 0 mm | - | 0 W/m² | - |
| 1777597816 | 21.11° C | 25% | 1010.1 hPa | 0 mm | - | 20 W/m² | - |
| 1777596017 | 21.67° C | 16% | 1009.7 hPa | 0 mm | - | 63 W/m² | - |
| 1777594817 | 22.22° C | 16% | 1009.7 hPa | 0 mm | - | 86 W/m² | - |
| 1777592418 | 23.33° C | 14% | 1009.4 hPa | 0 mm | - | 483 W/m² | - |
| 1777585816 | 22.78° C | 15% | 1010.3 hPa | 0 mm | - | 913 W/m² | - |
| 1777578618 | 22.22° C | 16% | 1012.3 hPa | 0 mm | - | 1099 W/m² | - |
| 1777577438 | 21.67° C | 17% | 1012.6 hPa | 0 mm | - | 1101 W/m² | - |
| 1777569617 | 18.89° C | 19% | 1014.4 hPa | 0 mm | - | 974 W/m² | - |
| 1777564815 | 17.22° C | 24% | 1015 hPa | 0 mm | - | 536 W/m² | - |
| 1777559416 | 15.56° C | 19% | 1015.1 hPa | 0 mm | - | 193 W/m² | - |
| 1777554617 | 13.33° C | 21% | 1014.9 hPa | 0 mm | - | 37 W/m² | - |
| 1777554037 | 13.33° C | 20% | 1014.8 hPa | 0 mm | - | 30 W/m² | - |
| 1777551615 | 12.78° C | 20% | 1014.6 hPa | 0 mm | - | 2 W/m² | - |
| 1777548016 | 13.89° C | 19% | 1014.5 hPa | 0 mm | - | 0 W/m² | - |
| 1777546216 | 14.44° C | 17% | 1014.2 hPa | 0 mm | - | 0 W/m² | - |
* Rain latest hour (hover to see other rain measurements)
** Current wind speed in m/s (hover to see current wind gust speed)